sensor_id;sensor_type;location;lat;lon;timestamp;pressure;altitude;pressure_sealevel;temperature;humidity
66762;BME280;53672;48.176;16.338;2023-05-23T00:02:34;98718.44;;;17.11;94.15
66762;BME280;53672;48.176;16.338;2023-05-23T00:07:36;98722.00;;;17.03;93.20
66762;BME280;53672;48.176;16.338;2023-05-23T00:12:37;98716.84;;;16.89;94.07
66762;BME280;53672;48.176;16.338;2023-05-23T00:17:37;98710.66;;;16.80;94.91
66762;BME280;53672;48.176;16.338;2023-05-23T00:22:39;98713.97;;;16.86;94.44
66762;BME280;53672;48.176;16.338;2023-05-23T00:27:39;98711.38;;;16.68;94.48
66762;BME280;53672;48.176;16.338;2023-05-23T00:32:40;98715.38;;;16.71;94.63
66762;BME280;53672;48.176;16.338;2023-05-23T00:37:42;98722.13;;;16.86;93.67
66762;BME280;53672;48.176;16.338;2023-05-23T00:42:42;98722.78;;;16.62;93.60
66762;BME280;53672;48.176;16.338;2023-05-23T00:47:43;98722.69;;;16.50;94.63
66762;BME280;53672;48.176;16.338;2023-05-23T00:52:47;98727.88;;;16.34;96.72
66762;BME280;53672;48.176;16.338;2023-05-23T00:57:48;98717.50;;;16.28;96.79
66762;BME280;53672;48.176;16.338;2023-05-23T01:02:48;98711.31;;;16.18;96.31
66762;BME280;53672;48.176;16.338;2023-05-23T01:07:50;98709.28;;;16.07;98.31
66762;BME280;53672;48.176;16.338;2023-05-23T01:13:00;98707.56;;;16.02;96.94
66762;BME280;53672;48.176;16.338;2023-05-23T01:18:07;98718.59;;;15.97;98.41
66762;BME280;53672;48.176;16.338;2023-05-23T01:23:17;98713.16;;;15.97;98.61
66762;BME280;53672;48.176;16.338;2023-05-23T01:28:26;98711.75;;;15.83;100.00
66762;BME280;53672;48.176;16.338;2023-05-23T01:33:27;98710.69;;;15.66;100.00
66762;BME280;53672;48.176;16.338;2023-05-23T01:38:28;98704.34;;;15.54;100.00
66762;BME280;53672;48.176;16.338;2023-05-23T01:43:30;98699.22;;;15.44;100.00
66762;BME280;53672;48.176;16.338;2023-05-23T01:48:31;98695.69;;;15.35;100.00
66762;BME280;53672;48.176;16.338;2023-05-23T01:53:32;98694.91;;;15.43;100.00
66762;BME280;53672;48.176;16.338;2023-05-23T01:58:34;98695.22;;;15.41;100.00
66762;BME280;53672;48.176;16.338;2023-05-23T02:03:35;98693.63;;;15.32;100.00
66762;BME280;53672;48.176;16.338;2023-05-23T02:08:35;98701.47;;;15.24;100.00
66762;BME280;53672;48.176;16.338;2023-05-23T02:13:37;98694.78;;;15.13;100.00
66762;BME280;53672;48.176;16.338;2023-05-23T02:18:37;98682.47;;;15.07;100.00
66762;BME280;53672;48.176;16.338;2023-05-23T02:23:38;98679.28;;;14.97;100.00
66762;BME280;53672;48.176;16.338;2023-05-23T02:28:40;98678.19;;;14.89;100.00
66762;BME280;53672;48.176;16.338;2023-05-23T02:33:40;98676.91;;;14.78;100.00
66762;BME280;53672;48.176;16.338;2023-05-23T02:38:41;98678.34;;;14.76;100.00
66762;BME280;53672;48.176;16.338;2023-05-23T02:43:44;98672.13;;;14.75;100.00
66762;BME280;53672;48.176;16.338;2023-05-23T02:48:45;98674.00;;;14.66;100.00
66762;BME280;53672;48.176;16.338;2023-05-23T02:53:45;98674.03;;;14.57;100.00
66762;BME280;53672;48.176;16.338;2023-05-23T02:58:47;98677.66;;;14.53;100.00
66762;BME280;53672;48.176;16.338;2023-05-23T03:03:48;98668.25;;;14.50;100.00
66762;BME280;53672;48.176;16.338;2023-05-23T03:08:48;98680.06;;;14.46;100.00
66762;BME280;53672;48.176;16.338;2023-05-23T03:13:50;98672.38;;;14.39;100.00
66762;BME280;53672;48.176;16.338;2023-05-23T03:18:50;98681.03;;;14.41;100.00
66762;BME280;53672;48.176;16.338;2023-05-23T03:23:51;98682.94;;;14.41;100.00
66762;BME280;53672;48.176;16.338;2023-05-23T03:28:53;98690.19;;;14.32;100.00
66762;BME280;53672;48.176;16.338;2023-05-23T03:33:53;98695.31;;;14.33;100.00
66762;BME280;53672;48.176;16.338;2023-05-23T03:38:54;98699.75;;;14.29;100.00
66762;BME280;53672;48.176;16.338;2023-05-23T03:43:55;98700.56;;;14.21;100.00
66762;BME280;53672;48.176;16.338;2023-05-23T03:48:56;98702.47;;;14.20;100.00
66762;BME280;53672;48.176;16.338;2023-05-23T03:53:56;98705.34;;;14.24;100.00
66762;BME280;53672;48.176;16.338;2023-05-23T03:58:58;98712.34;;;14.25;100.00
66762;BME280;53672;48.176;16.338;2023-05-23T04:03:59;98708.88;;;14.33;100.00
66762;BME280;53672;48.176;16.338;2023-05-23T04:08:59;98713.69;;;14.36;100.00
66762;BME280;53672;48.176;16.338;2023-05-23T04:14:01;98714.19;;;14.47;100.00
66762;BME280;53672;48.176;16.338;2023-05-23T04:19:01;98713.56;;;14.50;100.00
66762;BME280;53672;48.176;16.338;2023-05-23T04:24:02;98701.78;;;14.54;100.00
66762;BME280;53672;48.176;16.338;2023-05-23T04:29:04;98703.84;;;14.66;100.00
66762;BME280;53672;48.176;16.338;2023-05-23T04:34:04;98702.59;;;14.81;100.00
66762;BME280;53672;48.176;16.338;2023-05-23T04:39:05;98706.59;;;14.92;100.00
66762;BME280;53672;48.176;16.338;2023-05-23T04:44:07;98714.25;;;15.07;100.00
66762;BME280;53672;48.176;16.338;2023-05-23T04:49:07;98712.66;;;15.23;100.00
66762;BME280;53672;48.176;16.338;2023-05-23T04:54:08;98716.47;;;15.39;100.00
66762;BME280;53672;48.176;16.338;2023-05-23T04:59:10;98713.09;;;15.59;100.00
66762;BME280;53672;48.176;16.338;2023-05-23T05:04:10;98708.28;;;15.82;100.00
66762;BME280;53672;48.176;16.338;2023-05-23T05:09:11;98711.53;;;16.05;100.00
66762;BME280;53672;48.176;16.338;2023-05-23T05:14:13;98695.09;;;16.31;100.00
66762;BME280;53672;48.176;16.338;2023-05-23T05:19:13;98693.50;;;16.59;98.09
66762;BME280;53672;48.176;16.338;2023-05-23T05:24:13;98708.66;;;16.89;97.19
66762;BME280;53672;48.176;16.338;2023-05-23T05:29:15;98706.69;;;17.19;94.45
66762;BME280;53672;48.176;16.338;2023-05-23T05:34:16;98709.72;;;17.50;92.69
66762;BME280;53672;48.176;16.338;2023-05-23T05:39:16;98709.28;;;17.81;90.16
66762;BME280;53672;48.176;16.338;2023-05-23T05:44:18;98707.72;;;18.16;88.10
66762;BME280;53672;48.176;16.338;2023-05-23T05:49:18;98696.81;;;18.53;85.61
66762;BME280;53672;48.176;16.338;2023-05-23T05:54:19;98697.25;;;18.79;83.69
66762;BME280;53672;48.176;16.338;2023-05-23T05:59:21;98700.56;;;19.12;81.64
66762;BME280;53672;48.176;16.338;2023-05-23T06:04:21;98702.75;;;19.47;80.64
66762;BME280;53672;48.176;16.338;2023-05-23T06:09:22;98702.00;;;19.78;78.71
66762;BME280;53672;48.176;16.338;2023-05-23T06:14:23;98691.34;;;20.19;75.77
66762;BME280;53672;48.176;16.338;2023-05-23T06:19:24;98697.25;;;20.53;74.12
66762;BME280;53672;48.176;16.338;2023-05-23T06:24:24;98695.94;;;20.82;73.03
66762;BME280;53672;48.176;16.338;2023-05-23T06:29:26;98693.47;;;21.11;70.66
66762;BME280;53672;48.176;16.338;2023-05-23T06:34:27;98698.22;;;21.53;68.08
66762;BME280;53672;48.176;16.338;2023-05-23T06:39:27;98688.84;;;21.77;65.94
66762;BME280;53672;48.176;16.338;2023-05-23T06:44:29;98702.91;;;22.17;65.15
66762;BME280;53672;48.176;16.338;2023-05-23T06:49:29;98692.94;;;22.58;63.52
66762;BME280;53672;48.176;16.338;2023-05-23T06:54:30;98684.09;;;22.94;61.03
66762;BME280;53672;48.176;16.338;2023-05-23T06:59:32;98685.75;;;23.36;57.89
66762;BME280;53672;48.176;16.338;2023-05-23T07:04:32;98689.34;;;23.73;55.48
66762;BME280;53672;48.176;16.338;2023-05-23T07:09:33;98684.56;;;24.07;54.26
66762;BME280;53672;48.176;16.338;2023-05-23T07:14:34;98682.84;;;24.36;52.44
66762;BME280;53672;48.176;16.338;2023-05-23T07:19:36;98680.19;;;24.53;52.22
66762;BME280;53672;48.176;16.338;2023-05-23T07:24:36;98681.16;;;24.79;50.66
66762;BME280;53672;48.176;16.338;2023-05-23T07:29:38;98669.91;;;25.08;50.07
66762;BME280;53672;48.176;16.338;2023-05-23T07:34:38;98665.63;;;25.25;49.62
66762;BME280;53672;48.176;16.338;2023-05-23T07:39:40;98661.03;;;25.57;48.37
66762;BME280;53672;48.176;16.338;2023-05-23T07:44:42;98659.09;;;25.90;48.18
66762;BME280;53672;48.176;16.338;2023-05-23T07:49:42;98664.28;;;26.27;46.55
66762;BME280;53672;48.176;16.338;2023-05-23T07:54:43;98651.59;;;26.54;46.21
66762;BME280;53672;48.176;16.338;2023-05-23T07:59:45;98649.13;;;26.98;45.38
66762;BME280;53672;48.176;16.338;2023-05-23T08:04:46;98652.06;;;27.50;43.89
66762;BME280;53672;48.176;16.338;2023-05-23T08:09:46;98651.16;;;27.70;43.35
66762;BME280;53672;48.176;16.338;2023-05-23T08:14:48;98642.97;;;28.11;41.75
66762;BME280;53672;48.176;16.338;2023-05-23T08:19:49;98642.34;;;28.34;40.57
66762;BME280;53672;48.176;16.338;2023-05-23T08:24:49;98640.88;;;28.60;39.62
66762;BME280;53672;48.176;16.338;2023-05-23T08:29:51;98630.22;;;28.96;39.40
66762;BME280;53672;48.176;16.338;2023-05-23T08:34:52;98648.16;;;29.18;38.33
66762;BME280;53672;48.176;16.338;2023-05-23T08:39:52;98639.19;;;29.41;38.38
66762;BME280;53672;48.176;16.338;2023-05-23T08:44:54;98634.44;;;29.07;39.31
66762;BME280;53672;48.176;16.338;2023-05-23T08:49:54;98633.94;;;29.46;37.58
66762;BME280;53672;48.176;16.338;2023-05-23T08:54:56;98640.47;;;30.13;37.20
66762;BME280;53672;48.176;16.338;2023-05-23T08:59:58;98637.13;;;30.68;35.73
66762;BME280;53672;48.176;16.338;2023-05-23T09:04:59;98638.16;;;31.17;35.01
66762;BME280;53672;48.176;16.338;2023-05-23T09:09:59;98633.53;;;31.98;33.55
66762;BME280;53672;48.176;16.338;2023-05-23T09:15:01;98633.25;;;31.93;33.85
66762;BME280;53672;48.176;16.338;2023-05-23T09:20:02;98634.94;;;31.90;33.29
66762;BME280;53672;48.176;16.338;2023-05-23T09:25:04;98631.09;;;32.78;32.50
66762;BME280;53672;48.176;16.338;2023-05-23T09:30:08;98626.88;;;34.75;29.00
66762;BME280;53672;48.176;16.338;2023-05-23T09:35:09;98627.81;;;35.86;27.24
66762;BME280;53672;48.176;16.338;2023-05-23T09:40:11;98636.44;;;36.59;25.73
66762;BME280;53672;48.176;16.338;2023-05-23T09:45:14;98645.59;;;37.32;24.48
66762;BME280;53672;48.176;16.338;2023-05-23T09:50:15;98632.81;;;38.06;23.53
66762;BME280;53672;48.176;16.338;2023-05-23T09:55:16;98639.75;;;37.96;22.94
66762;BME280;53672;48.176;16.338;2023-05-23T10:00:18;98641.94;;;39.40;22.23
66762;BME280;53672;48.176;16.338;2023-05-23T10:05:29;98632.16;;;39.85;21.85
66762;BME280;53672;48.176;16.338;2023-05-23T10:10:31;98624.28;;;40.24;21.55
66762;BME280;53672;48.176;16.338;2023-05-23T10:15:38;98622.84;;;40.74;21.16
66762;BME280;53672;48.176;16.338;2023-05-23T10:20:42;98626.03;;;41.33;20.43
66762;BME280;53672;48.176;16.338;2023-05-23T10:25:48;98622.81;;;41.20;19.98
66762;BME280;53672;48.176;16.338;2023-05-23T10:30:51;98624.94;;;40.99;20.31
66762;BME280;53672;48.176;16.338;2023-05-23T10:35:56;98602.06;;;40.77;20.17
66762;BME280;53672;48.176;16.338;2023-05-23T10:41:05;98591.00;;;40.79;20.49
66762;BME280;53672;48.176;16.338;2023-05-23T10:46:11;98589.16;;;40.96;20.05
66762;BME280;53672;48.176;16.338;2023-05-23T10:51:13;98586.47;;;40.41;21.60
66762;BME280;53672;48.176;16.338;2023-05-23T10:56:19;98594.41;;;40.83;20.48
66762;BME280;53672;48.176;16.338;2023-05-23T11:01:22;68106.69;;;-141.26;100.00
66762;BME280;53672;48.176;16.338;2023-05-23T11:06:28;68106.69;;;-141.26;100.00
66762;BME280;53672;48.176;16.338;2023-05-23T11:11:51;68106.69;;;-141.26;100.00
66762;BME280;53672;48.176;16.338;2023-05-23T11:16:53;68106.69;;;-141.26;100.00
66762;BME280;53672;48.176;16.338;2023-05-23T11:21:56;68106.69;;;-141.26;100.00
66762;BME280;53672;48.176;16.338;2023-05-23T11:26:57;68106.69;;;-141.26;100.00
66762;BME280;53672;48.176;16.338;2023-05-23T11:31:59;68106.69;;;-141.26;100.00
66762;BME280;53672;48.176;16.338;2023-05-23T11:36:59;68106.69;;;-141.26;100.00
66762;BME280;53672;48.176;16.338;2023-05-23T11:42:00;68106.69;;;-141.26;100.00
66762;BME280;53672;48.176;16.338;2023-05-23T11:47:04;68106.69;;;-141.26;100.00
66762;BME280;53672;48.176;16.338;2023-05-23T11:52:05;68106.69;;;-141.26;100.00
66762;BME280;53672;48.176;16.338;2023-05-23T11:57:06;68106.69;;;-141.26;100.00
66762;BME280;53672;48.176;16.338;2023-05-23T12:02:07;68106.69;;;-141.26;100.00
66762;BME280;53672;48.176;16.338;2023-05-23T12:07:08;68106.69;;;-141.26;100.00
66762;BME280;53672;48.176;16.338;2023-05-23T12:12:08;68106.69;;;-141.26;100.00
66762;BME280;53672;48.176;16.338;2023-05-23T12:17:11;68106.69;;;-141.26;100.00
66762;BME280;53672;48.176;16.338;2023-05-23T12:22:12;68106.69;;;-141.26;100.00
66762;BME280;53672;48.176;16.338;2023-05-23T12:27:12;68106.69;;;-141.26;100.00
66762;BME280;53672;48.176;16.338;2023-05-23T12:32:14;68106.69;;;-141.26;100.00
66762;BME280;53672;48.176;16.338;2023-05-23T12:37:15;68106.69;;;-141.26;100.00
66762;BME280;53672;48.176;16.338;2023-05-23T12:42:16;68106.69;;;-141.26;100.00
66762;BME280;53672;48.176;16.338;2023-05-23T12:47:17;68106.69;;;-141.26;100.00
66762;BME280;53672;48.176;16.338;2023-05-23T12:52:18;68106.69;;;-141.26;100.00
66762;BME280;53672;48.176;16.338;2023-05-23T12:57:18;68106.69;;;-141.26;100.00
66762;BME280;53672;48.176;16.338;2023-05-23T13:02:20;68106.69;;;-141.26;100.00
66762;BME280;53672;48.176;16.338;2023-05-23T13:07:21;68106.69;;;-141.26;100.00
66762;BME280;53672;48.176;16.338;2023-05-23T13:12:22;68106.69;;;-141.26;100.00
66762;BME280;53672;48.176;16.338;2023-05-23T13:17:23;68106.69;;;-141.26;100.00
66762;BME280;53672;48.176;16.338;2023-05-23T13:22:24;68106.69;;;-141.26;100.00
66762;BME280;53672;48.176;16.338;2023-05-23T13:27:24;68106.69;;;-141.26;100.00
66762;BME280;53672;48.176;16.338;2023-05-23T13:32:26;68106.69;;;-141.26;100.00
66762;BME280;53672;48.176;16.338;2023-05-23T13:37:27;68106.69;;;-141.26;100.00
66762;BME280;53672;48.176;16.338;2023-05-23T13:42:27;68106.69;;;-141.26;100.00
66762;BME280;53672;48.176;16.338;2023-05-23T13:47:29;68106.69;;;-141.26;100.00
66762;BME280;53672;48.176;16.338;2023-05-23T13:52:30;68106.69;;;-141.26;100.00
66762;BME280;53672;48.176;16.338;2023-05-23T13:57:30;68106.69;;;-141.26;100.00
66762;BME280;53672;48.176;16.338;2023-05-23T14:02:32;68106.69;;;-141.26;100.00
66762;BME280;53672;48.176;16.338;2023-05-23T14:07:33;68106.69;;;-141.26;100.00
66762;BME280;53672;48.176;16.338;2023-05-23T14:12:33;68106.69;;;-141.26;100.00
66762;BME280;53672;48.176;16.338;2023-05-23T14:17:35;68106.69;;;-141.26;100.00
66762;BME280;53672;48.176;16.338;2023-05-23T14:22:35;68106.69;;;-141.26;100.00
66762;BME280;53672;48.176;16.338;2023-05-23T14:27:36;68106.69;;;-141.26;100.00
66762;BME280;53672;48.176;16.338;2023-05-23T14:32:38;68106.69;;;-141.26;100.00
66762;BME280;53672;48.176;16.338;2023-05-23T14:37:38;68106.69;;;-141.26;100.00
66762;BME280;53672;48.176;16.338;2023-05-23T14:42:39;68106.69;;;-141.26;100.00
66762;BME280;53672;48.176;16.338;2023-05-23T14:47:40;98634.75;;;22.75;65.30
66762;BME280;53672;48.176;16.338;2023-05-23T14:52:41;98656.63;;;22.68;69.05
66762;BME280;53672;48.176;16.338;2023-05-23T14:57:41;98677.50;;;22.23;72.33
66762;BME280;53672;48.176;16.338;2023-05-23T15:02:43;98688.16;;;21.60;77.30
66762;BME280;53672;48.176;16.338;2023-05-23T15:07:44;98711.22;;;21.37;79.62
66762;BME280;53672;48.176;16.338;2023-05-23T15:12:44;98721.56;;;21.08;79.45
66762;BME280;53672;48.176;16.338;2023-05-23T15:17:46;98742.84;;;20.80;80.57
66762;BME280;53672;48.176;16.338;2023-05-23T15:22:46;98752.59;;;20.62;80.94
66762;BME280;53672;48.176;16.338;2023-05-23T15:27:47;98773.28;;;20.75;80.67
66762;BME280;53672;48.176;16.338;2023-05-23T15:32:49;98776.91;;;20.32;82.45
66762;BME280;53672;48.176;16.338;2023-05-23T15:37:49;98792.13;;;20.02;85.89
66762;BME280;53672;48.176;16.338;2023-05-23T15:42:50;98800.84;;;19.64;92.39
66762;BME280;53672;48.176;16.338;2023-05-23T15:47:52;98801.47;;;19.57;98.56
66762;BME280;53672;48.176;16.338;2023-05-23T15:52:52;98795.72;;;19.22;97.58
66762;BME280;53672;48.176;16.338;2023-05-23T15:57:52;98808.72;;;19.01;100.00
66762;BME280;53672;48.176;16.338;2023-05-23T16:02:54;98810.81;;;18.80;100.00
66762;BME280;53672;48.176;16.338;2023-05-23T16:07:55;98810.34;;;18.66;100.00
66762;BME280;53672;48.176;16.338;2023-05-23T16:12:55;98818.66;;;18.57;100.00
66762;BME280;53672;48.176;16.338;2023-05-23T16:17:57;98819.50;;;18.49;100.00
66762;BME280;53672;48.176;16.338;2023-05-23T16:22:57;98836.19;;;18.36;100.00
66762;BME280;53672;48.176;16.338;2023-05-23T16:27:58;98835.56;;;18.39;100.00
66762;BME280;53672;48.176;16.338;2023-05-23T16:33:00;98836.00;;;18.41;100.00
66762;BME280;53672;48.176;16.338;2023-05-23T16:38:00;98837.13;;;18.28;100.00
66762;BME280;53672;48.176;16.338;2023-05-23T16:43:01;98838.59;;;18.25;100.00
66762;BME280;53672;48.176;16.338;2023-05-23T16:48:03;98837.19;;;18.19;100.00
66762;BME280;53672;48.176;16.338;2023-05-23T16:53:03;98834.34;;;18.15;100.00
66762;BME280;53672;48.176;16.338;2023-05-23T16:58:04;98826.56;;;17.93;100.00
66762;BME280;53672;48.176;16.338;2023-05-23T17:03:06;98816.59;;;17.97;100.00
66762;BME280;53672;48.176;16.338;2023-05-23T17:08:06;98814.06;;;17.92;100.00
66762;BME280;53672;48.176;16.338;2023-05-23T17:13:06;98812.56;;;17.95;100.00
66762;BME280;53672;48.176;16.338;2023-05-23T17:18:08;98818.63;;;18.00;100.00
66762;BME280;53672;48.176;16.338;2023-05-23T17:23:09;98801.34;;;18.08;100.00
66762;BME280;53672;48.176;16.338;2023-05-23T17:28:09;98800.91;;;17.94;100.00
66762;BME280;53672;48.176;16.338;2023-05-23T17:33:11;98789.75;;;17.99;100.00
66762;BME280;53672;48.176;16.338;2023-05-23T17:38:11;98788.09;;;18.07;100.00
66762;BME280;53672;48.176;16.338;2023-05-23T17:43:12;98794.56;;;18.14;100.00
66762;BME280;53672;48.176;16.338;2023-05-23T17:48:15;98792.97;;;18.25;100.00
66762;BME280;53672;48.176;16.338;2023-05-23T17:53:16;98784.81;;;18.25;97.69
66762;BME280;53672;48.176;16.338;2023-05-23T17:58:16;98786.63;;;18.21;97.78
66762;BME280;53672;48.176;16.338;2023-05-23T18:03:18;98793.41;;;18.15;98.04
66762;BME280;53672;48.176;16.338;2023-05-23T18:08:18;98791.59;;;18.07;99.00
66762;BME280;53672;48.176;16.338;2023-05-23T18:13:19;98789.31;;;17.97;100.00
66762;BME280;53672;48.176;16.338;2023-05-23T18:18:21;98797.13;;;17.99;100.00
66762;BME280;53672;48.176;16.338;2023-05-23T18:23:21;98799.63;;;17.92;100.00
66762;BME280;53672;48.176;16.338;2023-05-23T18:28:22;98809.25;;;17.77;100.00
66762;BME280;53672;48.176;16.338;2023-05-23T18:33:23;98810.78;;;17.66;100.00
66762;BME280;53672;48.176;16.338;2023-05-23T18:38:24;98812.91;;;17.60;100.00
66762;BME280;53672;48.176;16.338;2023-05-23T18:43:24;98821.94;;;17.52;100.00
66762;BME280;53672;48.176;16.338;2023-05-23T18:48:26;98838.16;;;17.49;100.00
66762;BME280;53672;48.176;16.338;2023-05-23T18:53:27;98847.00;;;17.46;100.00
66762;BME280;53672;48.176;16.338;2023-05-23T18:58:27;98851.16;;;17.43;100.00
66762;BME280;53672;48.176;16.338;2023-05-23T19:03:29;98856.22;;;17.33;100.00
66762;BME280;53672;48.176;16.338;2023-05-23T19:08:30;98855.59;;;17.27;100.00
66762;BME280;53672;48.176;16.338;2023-05-23T19:13:30;98862.09;;;17.14;100.00
66762;BME280;53672;48.176;16.338;2023-05-23T19:18:32;98862.16;;;17.05;100.00
66762;BME280;53672;48.176;16.338;2023-05-23T19:23:33;98857.19;;;17.07;100.00
66762;BME280;53672;48.176;16.338;2023-05-23T19:28:33;98860.09;;;17.02;100.00
66762;BME280;53672;48.176;16.338;2023-05-23T19:33:35;98865.59;;;16.94;100.00
66762;BME280;53672;48.176;16.338;2023-05-23T19:38:35;98865.00;;;16.88;100.00
66762;BME280;53672;48.176;16.338;2023-05-23T19:43:36;98874.59;;;16.86;100.00
66762;BME280;53672;48.176;16.338;2023-05-23T19:48:38;98884.38;;;16.78;100.00
66762;BME280;53672;48.176;16.338;2023-05-23T19:53:39;98896.72;;;16.76;100.00
66762;BME280;53672;48.176;16.338;2023-05-23T19:58:40;98894.84;;;16.67;100.00
66762;BME280;53672;48.176;16.338;2023-05-23T20:03:42;98892.63;;;16.61;100.00
66762;BME280;53672;48.176;16.338;2023-05-23T20:08:42;98898.72;;;16.58;100.00
66762;BME280;53672;48.176;16.338;2023-05-23T20:13:43;98902.69;;;16.52;100.00
66762;BME280;53672;48.176;16.338;2023-05-23T20:18:45;98904.16;;;16.49;100.00
66762;BME280;53672;48.176;16.338;2023-05-23T20:23:45;98913.28;;;16.45;100.00
66762;BME280;53672;48.176;16.338;2023-05-23T20:28:46;98918.09;;;16.39;100.00
66762;BME280;53672;48.176;16.338;2023-05-23T20:33:48;98917.63;;;16.37;100.00
66762;BME280;53672;48.176;16.338;2023-05-23T20:38:48;98918.41;;;16.38;100.00
66762;BME280;53672;48.176;16.338;2023-05-23T20:43:49;98905.47;;;16.35;100.00
66762;BME280;53672;48.176;16.338;2023-05-23T20:48:51;98921.63;;;16.31;100.00
66762;BME280;53672;48.176;16.338;2023-05-23T20:53:51;98923.88;;;16.29;100.00
66762;BME280;53672;48.176;16.338;2023-05-23T20:58:52;98936.34;;;16.30;100.00
66762;BME280;53672;48.176;16.338;2023-05-23T21:03:53;98931.25;;;16.29;100.00
66762;BME280;53672;48.176;16.338;2023-05-23T21:08:54;98935.56;;;16.30;100.00
66762;BME280;53672;48.176;16.338;2023-05-23T21:13:55;98945.47;;;16.34;100.00
66762;BME280;53672;48.176;16.338;2023-05-23T21:18:56;98952.66;;;16.39;100.00
66762;BME280;53672;48.176;16.338;2023-05-23T21:23:57;98958.09;;;16.39;100.00
66762;BME280;53672;48.176;16.338;2023-05-23T21:28:57;98955.84;;;16.41;100.00
66762;BME280;53672;48.176;16.338;2023-05-23T21:33:59;98971.41;;;16.40;100.00
66762;BME280;53672;48.176;16.338;2023-05-23T21:39:00;98983.06;;;16.41;100.00
66762;BME280;53672;48.176;16.338;2023-05-23T21:44:00;98985.47;;;16.42;100.00
66762;BME280;53672;48.176;16.338;2023-05-23T21:49:02;99000.34;;;16.45;100.00
66762;BME280;53672;48.176;16.338;2023-05-23T21:54:02;99012.53;;;16.56;100.00
66762;BME280;53672;48.176;16.338;2023-05-23T21:59:03;99001.63;;;16.56;100.00
66762;BME280;53672;48.176;16.338;2023-05-23T22:04:05;99003.06;;;16.53;100.00
66762;BME280;53672;48.176;16.338;2023-05-23T22:09:05;99010.41;;;16.53;100.00
66762;BME280;53672;48.176;16.338;2023-05-23T22:14:06;99019.06;;;16.55;100.00
66762;BME280;53672;48.176;16.338;2023-05-23T22:19:08;99030.47;;;16.57;100.00
66762;BME280;53672;48.176;16.338;2023-05-23T22:24:08;99031.25;;;16.57;100.00
66762;BME280;53672;48.176;16.338;2023-05-23T22:29:09;99035.72;;;16.53;100.00
66762;BME280;53672;48.176;16.338;2023-05-23T22:34:10;99029.94;;;16.55;100.00
66762;BME280;53672;48.176;16.338;2023-05-23T22:39:11;99026.25;;;16.51;100.00
66762;BME280;53672;48.176;16.338;2023-05-23T22:44:11;99033.47;;;16.47;100.00
66762;BME280;53672;48.176;16.338;2023-05-23T22:49:13;99034.13;;;16.44;100.00
66762;BME280;53672;48.176;16.338;2023-05-23T22:54:14;99032.03;;;16.41;100.00
66762;BME280;53672;48.176;16.338;2023-05-23T22:59:14;99029.94;;;16.38;100.00
66762;BME280;53672;48.176;16.338;2023-05-23T23:04:16;99031.69;;;16.34;100.00
66762;BME280;53672;48.176;16.338;2023-05-23T23:09:17;99030.75;;;16.30;100.00
66762;BME280;53672;48.176;16.338;2023-05-23T23:14:17;99036.50;;;16.28;100.00
66762;BME280;53672;48.176;16.338;2023-05-23T23:19:19;99036.19;;;16.30;100.00
66762;BME280;53672;48.176;16.338;2023-05-23T23:24:19;99037.78;;;16.31;100.00
66762;BME280;53672;48.176;16.338;2023-05-23T23:29:20;99038.94;;;16.30;100.00
66762;BME280;53672;48.176;16.338;2023-05-23T23:34:22;99040.03;;;16.29;100.00
66762;BME280;53672;48.176;16.338;2023-05-23T23:39:22;99036.19;;;16.30;100.00
66762;BME280;53672;48.176;16.338;2023-05-23T23:44:22;99033.63;;;16.24;100.00
66762;BME280;53672;48.176;16.338;2023-05-23T23:49:24;99037.63;;;16.27;100.00
66762;BME280;53672;48.176;16.338;2023-05-23T23:54:25;99033.78;;;16.28;100.00
66762;BME280;53672;48.176;16.338;2023-05-23T23:59:25;99039.69;;;16.30;100.00
